createdAt,value
2023-01-13T00:00:12.865Z,99.99
2023-01-13T00:01:12.847Z,99.99
2023-01-13T00:02:12.914Z,99.99
2023-01-13T00:03:12.882Z,99.99
2023-01-13T00:04:12.902Z,99.99
2023-01-13T00:05:12.934Z,99.99
2023-01-13T00:06:12.960Z,99.99
2023-01-13T00:07:12.974Z,99.99
2023-01-13T00:08:12.994Z,99.99
2023-01-13T00:09:13.020Z,99.99
2023-01-13T00:10:13.038Z,99.99
2023-01-13T00:11:13.079Z,99.99
2023-01-13T00:12:13.092Z,99.99
2023-01-13T00:13:13.107Z,99.99
2023-01-13T00:14:13.128Z,99.99
2023-01-13T00:15:13.155Z,99.99
2023-01-13T00:16:13.208Z,99.99
2023-01-13T00:17:13.197Z,99.99
2023-01-13T00:18:13.222Z,99.99
2023-01-13T00:19:13.277Z,99.99
2023-01-13T00:20:13.261Z,99.99
2023-01-13T00:21:13.286Z,99.99
2023-01-13T00:22:13.313Z,99.99
2023-01-13T00:23:13.333Z,99.99
2023-01-13T00:24:13.354Z,99.99
2023-01-13T00:25:13.379Z,99.99
2023-01-13T00:26:13.425Z,99.99
2023-01-13T00:27:13.423Z,99.99
2023-01-13T00:28:13.470Z,99.99
2023-01-13T00:29:13.487Z,99.99
2023-01-13T00:30:13.487Z,99.99
2023-01-13T00:31:13.600Z,99.99
2023-01-13T00:32:13.537Z,99.99
2023-01-13T00:33:13.553Z,99.99
2023-01-13T00:34:13.577Z,99.99
2023-01-13T00:35:13.600Z,99.99
2023-01-13T00:36:13.618Z,99.99
2023-01-13T00:37:13.644Z,99.99
2023-01-13T00:38:13.665Z,99.99
2023-01-13T00:39:13.688Z,99.99
2023-01-13T00:40:13.718Z,99.99
2023-01-13T00:41:13.737Z,99.99
2023-01-13T00:42:13.756Z,99.99
2023-01-13T00:43:13.780Z,99.99
2023-01-13T00:44:13.800Z,99.99
2023-01-13T00:45:13.823Z,99.99
2023-01-13T00:46:13.964Z,99.99
2023-01-13T00:47:13.870Z,99.99
2023-01-13T00:48:13.900Z,99.99
2023-01-13T00:49:13.914Z,99.99
2023-01-13T00:50:13.936Z,99.99
2023-01-13T00:51:13.960Z,99.99
2023-01-13T00:52:13.976Z,99.99
2023-01-13T00:53:14.000Z,99.99
2023-01-13T00:54:14.031Z,99.99
2023-01-13T00:55:14.078Z,99.99
2023-01-13T00:56:14.081Z,99.99
2023-01-13T00:57:14.102Z,99.99
2023-01-13T00:58:14.111Z,99.99
2023-01-13T00:59:14.152Z,99.99
2023-01-13T01:00:14.167Z,99.99
2023-01-13T01:01:14.300Z,99.99
2023-01-13T01:02:14.324Z,99.99
2023-01-13T01:03:14.222Z,99.99
2023-01-13T01:04:14.244Z,99.99
2023-01-13T01:05:14.264Z,99.99
2023-01-13T01:06:14.296Z,99.99
2023-01-13T01:07:14.311Z,99.99
2023-01-13T01:08:14.336Z,99.99
2023-01-13T01:09:14.355Z,99.99
2023-01-13T01:10:14.376Z,99.99
2023-01-13T01:11:14.404Z,99.99
2023-01-13T01:12:14.418Z,99.99
2023-01-13T01:13:14.446Z,99.99
2023-01-13T01:14:14.468Z,99.99
2023-01-13T01:15:14.534Z,99.99
2023-01-13T01:16:14.574Z,99.99
2023-01-13T01:17:14.531Z,99.99
2023-01-13T01:18:14.556Z,99.99
2023-01-13T01:19:14.581Z,99.99
2023-01-13T01:20:14.619Z,99.99
2023-01-13T01:21:14.641Z,99.99
2023-01-13T01:22:14.642Z,99.99
2023-01-13T01:23:14.666Z,99.99
2023-01-13T01:24:14.686Z,99.99
2023-01-13T01:25:14.719Z,99.99
2023-01-13T01:26:14.738Z,99.99
2023-01-13T01:27:14.755Z,99.99
2023-01-13T01:28:14.781Z,99.99
2023-01-13T01:29:14.799Z,99.99
2023-01-13T01:30:14.817Z,99.99
2023-01-13T01:31:14.900Z,99.99
2023-01-13T01:32:14.863Z,99.99
2023-01-13T01:33:14.886Z,99.99
2023-01-13T01:34:14.905Z,99.99
2023-01-13T01:35:14.929Z,99.99
2023-01-13T01:36:14.948Z,99.99
2023-01-13T01:37:14.972Z,99.99
2023-01-13T01:38:14.994Z,99.99
2023-01-13T01:39:15.023Z,99.99
2023-01-13T01:40:15.041Z,99.99
2023-01-13T01:41:15.056Z,99.99
2023-01-13T01:42:15.079Z,99.99
2023-01-13T01:43:15.106Z,99.99
2023-01-13T01:44:15.127Z,99.99
2023-01-13T01:45:15.166Z,99.99
2023-01-13T01:46:15.287Z,99.99
2023-01-13T01:47:15.190Z,99.99
2023-01-13T01:48:15.212Z,99.99
2023-01-13T01:49:15.230Z,99.99
2023-01-13T01:50:15.263Z,99.99
2023-01-13T01:51:15.277Z,99.99
2023-01-13T01:52:15.298Z,99.99
2023-01-13T01:53:15.321Z,99.99
2023-01-13T01:54:15.345Z,99.99
2023-01-13T01:55:15.379Z,99.99
2023-01-13T01:56:15.384Z,99.99
2023-01-13T01:57:15.408Z,99.99
2023-01-13T01:58:15.430Z,99.99
2023-01-13T01:59:15.455Z,99.99
2023-01-13T02:00:15.507Z,99.99
2023-01-13T02:01:15.588Z,99.99
2023-01-13T02:02:15.643Z,99.99
2023-01-13T02:03:15.542Z,99.99
2023-01-13T02:04:15.583Z,99.99
2023-01-13T02:05:15.582Z,99.99
2023-01-13T02:06:15.612Z,99.99
2023-01-13T02:07:15.624Z,99.99
2023-01-13T02:08:15.644Z,99.99
2023-01-13T02:09:15.674Z,99.99
2023-01-13T02:10:15.687Z,99.99
2023-01-13T02:11:15.708Z,99.99
2023-01-13T02:12:15.751Z,99.99
2023-01-13T02:13:15.759Z,99.99
2023-01-13T02:14:15.773Z,99.99
2023-01-13T02:15:15.828Z,99.99
2023-01-13T02:16:15.834Z,99.99
2023-01-13T02:17:15.840Z,99.99
2023-01-13T02:18:15.865Z,99.99
2023-01-13T02:19:15.880Z,99.99
2023-01-13T02:20:15.911Z,99.99
2023-01-13T02:21:15.927Z,99.99
2023-01-13T02:22:15.943Z,99.99
2023-01-13T02:23:15.972Z,99.99
2023-01-13T02:24:15.993Z,99.99
2023-01-13T02:25:16.006Z,99.99
2023-01-13T02:26:16.030Z,99.99
2023-01-13T02:27:16.058Z,99.99
2023-01-13T02:28:16.071Z,99.99
2023-01-13T02:29:16.092Z,99.99
2023-01-13T02:30:16.118Z,99.99
2023-01-13T02:31:16.159Z,99.99
2023-01-13T02:32:16.163Z,99.99
2023-01-13T02:33:16.184Z,99.99
2023-01-13T02:34:16.205Z,99.99
2023-01-13T02:35:16.227Z,99.99
2023-01-13T02:36:16.244Z,99.99
2023-01-13T02:37:16.283Z,99.99
2023-01-13T02:38:16.294Z,99.99
2023-01-13T02:39:16.322Z,99.99
2023-01-13T02:40:16.361Z,99.99
2023-01-13T02:41:16.353Z,99.99
2023-01-13T02:42:16.386Z,99.99
2023-01-13T02:43:16.397Z,99.99
2023-01-13T02:44:16.413Z,99.99
2023-01-13T02:45:16.446Z,99.99
2023-01-13T02:46:16.474Z,99.99
2023-01-13T02:47:16.485Z,99.99
2023-01-13T02:48:16.501Z,99.99
2023-01-13T02:49:16.525Z,99.99
2023-01-13T02:50:16.544Z,99.99
2023-01-13T02:51:16.565Z,99.99
2023-01-13T02:52:16.585Z,99.99
2023-01-13T02:53:16.609Z,99.99
2023-01-13T02:54:16.631Z,99.99
2023-01-13T02:55:16.664Z,99.99
2023-01-13T02:56:16.677Z,99.99
2023-01-13T02:57:16.694Z,99.99
2023-01-13T02:58:16.713Z,99.99
2023-01-13T02:59:16.729Z,99.99
2023-01-13T03:00:16.722Z,99.99
2023-01-13T03:01:16.918Z,99.99
2023-01-13T03:02:16.909Z,99.99
2023-01-13T03:03:16.802Z,99.99
2023-01-13T03:04:16.806Z,99.99
2023-01-13T03:05:16.864Z,99.99
2023-01-13T03:06:16.860Z,99.99
2023-01-13T03:07:16.871Z,99.99
2023-01-13T03:08:16.890Z,99.99
2023-01-13T03:09:16.918Z,99.99
2023-01-13T03:10:16.934Z,99.99
2023-01-13T03:11:16.955Z,99.99
2023-01-13T03:12:16.975Z,99.99
2023-01-13T03:13:16.995Z,99.99
2023-01-13T03:14:17.017Z,99.99
2023-01-13T03:15:17.039Z,99.99
2023-01-13T03:16:17.097Z,99.99
2023-01-13T03:17:17.085Z,99.99
2023-01-13T03:18:17.104Z,99.99
2023-01-13T03:19:17.118Z,99.99
2023-01-13T03:20:17.150Z,99.99
2023-01-13T03:21:17.166Z,99.99
2023-01-13T03:22:17.208Z,99.99
2023-01-13T03:23:17.217Z,99.99
2023-01-13T03:24:17.236Z,99.99
2023-01-13T03:25:17.270Z,99.99
2023-01-13T03:26:17.291Z,99.99
2023-01-13T03:27:17.295Z,99.99
2023-01-13T03:28:17.312Z,99.99
2023-01-13T03:29:17.347Z,99.99
2023-01-13T03:30:17.355Z,99.99
2023-01-13T03:31:17.375Z,99.99
2023-01-13T03:32:17.421Z,99.99
2023-01-13T03:33:17.424Z,99.99
2023-01-13T03:34:17.445Z,99.99
2023-01-13T03:35:17.461Z,99.99
2023-01-13T03:36:17.505Z,99.99
2023-01-13T03:37:17.506Z,99.99
2023-01-13T03:38:17.536Z,99.99
2023-01-13T03:39:17.547Z,99.99
2023-01-13T03:40:17.571Z,99.99
2023-01-13T03:41:17.592Z,99.99
2023-01-13T03:42:17.610Z,99.99
2023-01-13T03:43:17.653Z,99.99
2023-01-13T03:44:17.671Z,99.99
2023-01-13T03:45:17.690Z,99.99
2023-01-13T03:46:17.724Z,99.99
2023-01-13T03:47:17.736Z,99.99
2023-01-13T03:48:17.738Z,99.99
2023-01-13T03:49:17.769Z,99.99
2023-01-13T03:50:17.785Z,99.99
2023-01-13T03:51:17.803Z,99.99
2023-01-13T03:52:17.824Z,99.99
2023-01-13T03:53:17.847Z,99.99
2023-01-13T03:54:17.869Z,99.99
2023-01-13T03:55:17.890Z,99.99
2023-01-13T03:56:17.923Z,99.99
2023-01-13T03:57:17.934Z,99.99
2023-01-13T03:58:18.021Z,99.99
2023-01-13T03:59:17.972Z,99.99
2023-01-13T04:00:17.993Z,99.99
2023-01-13T04:01:18.115Z,99.99
2023-01-13T04:02:18.111Z,99.99
2023-01-13T04:03:18.053Z,99.99
2023-01-13T04:04:18.091Z,99.99
2023-01-13T04:05:18.104Z,99.99
2023-01-13T04:06:18.129Z,99.99
2023-01-13T04:07:18.142Z,99.99
2023-01-13T04:08:18.164Z,99.99
2023-01-13T04:09:18.229Z,99.99
2023-01-13T04:10:18.207Z,99.99
2023-01-13T04:11:18.232Z,99.99
2023-01-13T04:12:18.247Z,99.99
2023-01-13T04:13:18.268Z,99.99
2023-01-13T04:14:18.290Z,99.99
2023-01-13T04:15:18.311Z,99.99
2023-01-13T04:16:18.329Z,99.99
2023-01-13T04:17:18.355Z,99.99
2023-01-13T04:18:18.375Z,99.99
2023-01-13T04:19:18.418Z,99.99
2023-01-13T04:20:18.437Z,99.99
2023-01-13T04:21:18.437Z,99.99
2023-01-13T04:22:18.463Z,99.99
2023-01-13T04:23:18.478Z,99.99
2023-01-13T04:24:18.501Z,99.99
2023-01-13T04:25:18.539Z,99.99
2023-01-13T04:26:18.546Z,99.99
2023-01-13T04:27:18.579Z,99.99
2023-01-13T04:28:18.593Z,99.99
2023-01-13T04:29:18.605Z,99.99
2023-01-13T04:30:18.642Z,99.99
2023-01-13T04:31:18.696Z,99.99
2023-01-13T04:32:18.671Z,99.99
2023-01-13T04:33:18.688Z,99.99
2023-01-13T04:34:18.709Z,99.99
2023-01-13T04:35:18.731Z,99.99
2023-01-13T04:36:18.754Z,99.99
2023-01-13T04:37:18.778Z,99.99
2023-01-13T04:38:18.795Z,99.99
2023-01-13T04:39:18.820Z,99.99
2023-01-13T04:40:18.834Z,99.99
2023-01-13T04:41:18.862Z,99.99
2023-01-13T04:42:18.882Z,99.99
2023-01-13T04:43:18.903Z,99.99
2023-01-13T04:44:18.920Z,99.99
2023-01-13T04:45:18.944Z,99.99
2023-01-13T04:46:19.085Z,99.99
2023-01-13T04:47:18.975Z,99.99
2023-01-13T04:48:19.020Z,99.99
2023-01-13T04:49:19.024Z,99.99
2023-01-13T04:50:19.044Z,99.99
2023-01-13T04:51:19.075Z,99.99
2023-01-13T04:52:19.087Z,99.99
2023-01-13T04:53:19.109Z,99.99
2023-01-13T04:54:19.134Z,99.99
2023-01-13T04:55:19.148Z,99.99
2023-01-13T04:56:19.169Z,99.99
2023-01-13T04:57:19.200Z,99.99
2023-01-13T04:58:19.209Z,99.99
2023-01-13T04:59:19.234Z,99.99
2023-01-13T05:00:19.255Z,99.99
2023-01-13T05:01:19.436Z,99.99
2023-01-13T05:02:19.339Z,99.99
2023-01-13T05:03:19.324Z,99.99
2023-01-13T05:04:19.332Z,99.99
2023-01-13T05:05:19.363Z,99.99
2023-01-13T05:06:19.376Z,99.99
2023-01-13T05:07:19.399Z,99.99
2023-01-13T05:08:19.440Z,99.99
2023-01-13T05:09:19.460Z,99.99
2023-01-13T05:10:19.457Z,99.99
2023-01-13T05:11:19.485Z,99.99
2023-01-13T05:12:19.501Z,99.99
2023-01-13T05:13:19.520Z,99.99
2023-01-13T05:14:19.549Z,99.99
2023-01-13T05:15:19.570Z,99.99
2023-01-13T05:16:19.625Z,99.99
2023-01-13T05:17:19.605Z,99.99
2023-01-13T05:18:19.628Z,99.99
2023-01-13T05:19:19.653Z,99.99
2023-01-13T05:20:19.672Z,99.99
2023-01-13T05:21:19.690Z,99.99
2023-01-13T05:22:19.718Z,99.99
2023-01-13T05:23:19.730Z,99.99
2023-01-13T05:24:19.788Z,99.99
2023-01-13T05:25:19.770Z,99.99
2023-01-13T05:26:19.821Z,99.99
2023-01-13T05:27:19.812Z,99.99
2023-01-13T05:28:19.849Z,99.99
2023-01-13T05:29:19.860Z,99.99
2023-01-13T05:30:19.878Z,99.99
2023-01-13T05:31:19.919Z,99.99
2023-01-13T05:32:19.925Z,99.99
2023-01-13T05:33:19.944Z,99.99
2023-01-13T05:34:19.962Z,99.99
2023-01-13T05:35:27.155Z,99.99
2023-01-13T05:38:28.451Z,99.99
2023-01-13T05:39:27.982Z,99.99
2023-01-13T05:41:20.923Z,99.99
2023-01-13T05:42:20.928Z,99.99
2023-01-13T05:44:25.417Z,99.99
2023-01-13T05:45:24.958Z,99.99
2023-01-13T05:47:28.964Z,99.99
2023-01-13T05:48:28.970Z,99.79
2023-01-13T05:50:33.460Z,99.99
2023-01-13T05:51:32.987Z,99.99
2023-01-13T05:53:37.008Z,99.69
2023-01-13T05:54:37.009Z,99.99
2023-01-13T05:56:41.521Z,99.99
2023-01-13T05:57:41.030Z,99.99
2023-01-13T05:59:45.038Z,99.98
2023-01-13T06:00:45.046Z,99.98
2023-01-13T06:02:49.542Z,99.99
2023-01-13T06:03:49.084Z,99.99
2023-01-13T06:05:53.084Z,99.99
2023-01-13T06:06:53.096Z,99.99
2023-01-13T06:08:57.588Z,99.99
2023-01-13T06:09:57.125Z,99.99
2023-01-13T06:11:50.052Z,99.99
2023-01-13T06:12:50.057Z,99.99
2023-01-13T06:14:54.549Z,99.99
2023-01-13T06:15:54.128Z,99.99
2023-01-13T06:17:58.107Z,99.99
2023-01-13T06:18:58.117Z,99.99
2023-01-13T06:21:02.602Z,99.99
2023-01-13T06:22:02.134Z,99.99
2023-01-13T06:24:06.147Z,99.99
2023-01-13T06:25:06.155Z,99.99
2023-01-13T06:27:10.657Z,99.99
2023-01-13T06:28:10.183Z,99.99
2023-01-13T06:30:14.240Z,99.99
2023-01-13T06:31:14.279Z,99.99
2023-01-13T06:33:18.710Z,99.99
2023-01-13T06:34:18.272Z,99.99
2023-01-13T06:36:22.345Z,99.99
2023-01-13T06:37:22.279Z,99.99
2023-01-13T06:39:26.764Z,99.99
2023-01-13T06:40:26.286Z,99.99
2023-01-13T06:42:30.296Z,99.99
2023-01-13T06:43:30.309Z,99.99
2023-01-13T06:45:34.796Z,99.99
2023-01-13T06:46:34.357Z,99.99
2023-01-13T06:48:38.336Z,99.99
2023-01-13T06:49:38.348Z,99.99
2023-01-13T06:51:31.823Z,99.99
2023-01-13T06:52:31.293Z,99.99
2023-01-13T06:54:35.302Z,99.99
2023-01-13T06:55:35.304Z,99.99
2023-01-13T06:57:39.794Z,99.99
2023-01-13T06:58:39.319Z,99.99
2023-01-13T07:00:43.391Z,99.99
2023-01-13T07:01:43.564Z,99.99
2023-01-13T07:03:47.837Z,99.99
2023-01-13T07:04:47.361Z,99.99
2023-01-13T07:06:51.379Z,99.99
2023-01-13T07:07:51.398Z,99.99
2023-01-13T07:09:55.879Z,99.99
2023-01-13T07:10:55.406Z,99.99
2023-01-13T07:12:48.546Z,99.99
2023-01-13T07:13:48.575Z,99.99
2023-01-13T07:15:53.046Z,99.99
2023-01-13T07:16:52.579Z,99.99
2023-01-13T07:18:56.580Z,99.99
2023-01-13T07:19:56.592Z,99.99
2023-01-13T07:21:50.067Z,99.99
2023-01-13T07:22:49.534Z,99.99
2023-01-13T07:24:53.550Z,99.99
2023-01-13T07:25:53.555Z,99.99
2023-01-13T07:27:58.044Z,99.99
2023-01-13T07:28:57.569Z,99.99
2023-01-13T07:31:01.626Z,99.99
2023-01-13T07:32:01.688Z,99.99
2023-01-13T07:34:06.095Z,99.99
2023-01-13T07:35:05.622Z,99.99
2023-01-13T07:37:09.624Z,99.99
2023-01-13T07:38:09.637Z,99.99
2023-01-13T07:40:14.133Z,99.99
2023-01-13T07:41:13.656Z,99.99
2023-01-13T07:43:17.679Z,99.99
2023-01-13T07:44:17.689Z,99.99
2023-01-13T07:46:22.164Z,99.99
2023-01-13T07:47:21.710Z,99.99
2023-01-13T07:49:25.699Z,99.99
2023-01-13T07:50:25.706Z,99.99
2023-01-13T07:52:30.197Z,99.99
2023-01-13T07:53:29.778Z,99.99
2023-01-13T07:55:33.787Z,99.99
2023-01-13T07:56:33.792Z,99.88
2023-01-13T07:58:38.294Z,99.99
2023-01-13T07:59:37.820Z,99.69
2023-01-13T08:01:30.976Z,99.41
2023-01-13T08:02:30.858Z,99.22
2023-01-13T08:04:35.249Z,99.12
2023-01-13T08:05:34.772Z,99.50
2023-01-13T08:07:38.817Z,99.41
2023-01-13T08:08:38.825Z,98.93
2023-01-13T08:10:43.316Z,98.65
2023-01-13T08:11:42.872Z,98.69
2023-01-13T08:13:46.863Z,98.55
2023-01-13T08:14:46.858Z,98.69
2023-01-13T08:16:40.401Z,98.60
2023-01-13T08:17:40.000Z,98.60
2023-01-13T08:19:44.014Z,97.84
2023-01-13T08:20:44.027Z,98.03
2023-01-13T08:22:48.515Z,97.55
2023-01-13T08:23:48.052Z,96.79
2023-01-13T08:25:52.058Z,95.94
2023-01-13T08:26:52.066Z,95.84
2023-01-13T08:28:56.560Z,95.84
2023-01-13T08:29:56.087Z,95.75
2023-01-13T08:31:49.032Z,95.27
2023-01-13T08:32:49.030Z,95.17
2023-01-13T08:34:53.527Z,95.46
2023-01-13T08:35:53.051Z,95.17
2023-01-13T08:37:57.059Z,94.70
2023-01-13T08:38:57.068Z,94.70
2023-01-13T08:41:01.555Z,94.51
2023-01-13T08:42:01.091Z,94.98
2023-01-13T08:44:05.120Z,94.42
2023-01-13T08:45:05.107Z,93.65
2023-01-13T08:47:09.617Z,94.22
2023-01-13T08:48:09.128Z,94.60
2023-01-13T08:50:13.135Z,93.74
2023-01-13T08:51:13.157Z,93.18
2023-01-13T08:53:17.632Z,93.84
2023-01-13T08:54:17.177Z,93.74
2023-01-13T08:56:21.181Z,94.22
2023-01-13T08:57:21.241Z,94.03
2023-01-13T08:58:21.213Z,94.03
2023-01-13T08:59:21.255Z,93.65
2023-01-13T09:00:21.256Z,94.22
2023-01-13T09:01:21.401Z,94.42
2023-01-13T09:02:21.452Z,93.74
2023-01-13T09:03:21.349Z,93.94
2023-01-13T09:04:21.382Z,94.13
2023-01-13T09:05:21.360Z,94.22
2023-01-13T09:06:21.393Z,94.22
2023-01-13T09:07:21.415Z,93.84
2023-01-13T09:08:21.425Z,93.46
2023-01-13T09:09:21.455Z,93.18
2023-01-13T09:10:21.468Z,93.18
2023-01-13T09:11:21.497Z,93.08
2023-01-13T09:12:21.520Z,93.55
2023-01-13T09:13:21.537Z,92.60
2023-01-13T09:14:21.586Z,92.60
2023-01-13T09:15:21.585Z,92.55
2023-01-13T09:16:21.600Z,92.65
2023-01-13T09:17:21.623Z,92.94
2023-01-13T09:18:21.641Z,92.79
2023-01-13T09:19:21.674Z,92.94
2023-01-13T09:20:21.702Z,92.41
2023-01-13T09:21:21.708Z,92.18
2023-01-13T09:22:21.738Z,91.99
2023-01-13T09:23:21.752Z,92.22
2023-01-13T09:24:21.767Z,91.37
2023-01-13T09:25:21.795Z,91.56
2023-01-13T09:26:21.818Z,91.60
2023-01-13T09:27:21.878Z,91.56
2023-01-13T09:28:21.857Z,92.36
2023-01-13T09:29:21.885Z,92.27
2023-01-13T09:30:21.905Z,92.55
2023-01-13T09:31:21.958Z,91.31
2023-01-13T09:32:21.945Z,91.89
2023-01-13T09:33:21.974Z,91.89
2023-01-13T09:34:21.986Z,91.89
2023-01-13T09:35:22.008Z,91.79
2023-01-13T09:36:22.028Z,91.03
2023-01-13T09:37:22.047Z,91.41
2023-01-13T09:38:22.077Z,90.27
2023-01-13T09:39:22.095Z,89.61
2023-01-13T09:40:22.137Z,90.08
2023-01-13T09:41:22.139Z,89.89
2023-01-13T09:42:22.158Z,89.70
2023-01-13T09:43:22.182Z,90.36
2023-01-13T09:44:22.200Z,89.89
2023-01-13T09:45:22.231Z,90.46
2023-01-13T09:46:22.314Z,89.70
2023-01-13T09:47:22.269Z,89.89
2023-01-13T09:48:22.371Z,89.70
2023-01-13T09:49:22.314Z,89.98
2023-01-13T09:50:22.339Z,89.94
2023-01-13T09:51:22.371Z,89.79
2023-01-13T09:52:22.376Z,90.46
2023-01-13T09:53:22.395Z,90.27
2023-01-13T09:54:22.420Z,90.08
2023-01-13T09:55:22.439Z,89.89
2023-01-13T09:56:22.477Z,89.84
2023-01-13T09:57:22.486Z,89.89
2023-01-13T09:58:22.500Z,89.79
2023-01-13T09:59:22.536Z,90.08
2023-01-13T10:00:22.554Z,90.42
2023-01-13T10:01:22.647Z,89.61
2023-01-13T10:02:22.589Z,89.37
2023-01-13T10:03:22.691Z,89.79
2023-01-13T10:04:22.647Z,89.32
2023-01-13T10:05:22.656Z,89.22
2023-01-13T10:06:22.692Z,89.41
2023-01-13T10:07:23.668Z,89.41
2023-01-13T10:08:22.720Z,89.70
2023-01-13T10:09:22.746Z,88.93
2023-01-13T10:10:22.763Z,88.93
2023-01-13T10:11:22.787Z,89.03
2023-01-13T10:12:22.808Z,88.75
2023-01-13T10:13:22.829Z,88.84
2023-01-13T10:14:22.850Z,88.37
2023-01-13T10:15:22.872Z,88.37
2023-01-13T10:16:22.948Z,88.84
2023-01-13T10:17:22.915Z,88.75
2023-01-13T10:18:22.955Z,88.56
2023-01-13T10:19:23.673Z,88.84
2023-01-13T10:20:22.978Z,88.79
2023-01-13T10:21:23.001Z,88.51
2023-01-13T10:22:23.026Z,87.84
2023-01-13T10:23:23.047Z,87.07
2023-01-13T10:24:23.067Z,86.88
2023-01-13T10:25:23.096Z,87.17
2023-01-13T10:26:23.185Z,87.27
2023-01-13T10:27:23.136Z,87.36
2023-01-13T10:28:23.159Z,86.79
2023-01-13T10:29:23.179Z,86.32
2023-01-13T10:30:23.203Z,86.41
2023-01-13T10:31:23.302Z,86.32
2023-01-13T10:32:23.249Z,86.88
2023-01-13T10:33:23.266Z,86.79
2023-01-13T10:34:23.288Z,86.79
2023-01-13T10:35:23.317Z,86.69
2023-01-13T10:36:23.332Z,86.69
2023-01-13T10:37:23.356Z,87.17
2023-01-13T10:38:23.388Z,86.41
2023-01-13T10:39:23.405Z,86.41
2023-01-13T10:40:23.419Z,86.12
2023-01-13T10:41:23.441Z,86.79
2023-01-13T10:42:23.461Z,86.51
2023-01-13T10:43:23.506Z,86.69
2023-01-13T10:44:23.507Z,86.79
2023-01-13T10:45:23.529Z,86.98
2023-01-13T10:46:23.571Z,86.88
2023-01-13T10:47:23.585Z,86.69
2023-01-13T10:48:23.591Z,86.41
2023-01-13T10:49:23.619Z,86.51
2023-01-13T10:50:23.675Z,86.69
2023-01-13T10:51:23.663Z,86.69
2023-01-13T10:52:23.747Z,86.98
2023-01-13T10:53:23.716Z,87.27
2023-01-13T10:54:23.742Z,87.07
2023-01-13T10:55:23.794Z,86.88
2023-01-13T10:56:23.801Z,86.75
2023-01-13T10:57:23.793Z,86.69
2023-01-13T10:58:23.816Z,87.17
2023-01-13T10:59:23.846Z,87.13
2023-01-13T11:00:23.859Z,87.07
2023-01-13T11:01:24.003Z,87.98
2023-01-13T11:02:26.307Z,87.79
2023-01-13T11:03:23.924Z,87.65
2023-01-13T11:04:24.018Z,88.22
2023-01-13T11:05:23.969Z,88.12
2023-01-13T11:06:23.995Z,87.70
2023-01-13T11:07:24.020Z,87.74
2023-01-13T11:08:24.037Z,87.65
2023-01-13T11:09:24.075Z,87.84
2023-01-13T11:10:24.094Z,87.74
2023-01-13T11:11:24.101Z,87.84
2023-01-13T11:12:24.121Z,87.84
2023-01-13T11:13:24.147Z,88.03
2023-01-13T11:14:24.172Z,87.07
2023-01-13T11:15:24.194Z,87.36
2023-01-13T11:16:24.290Z,87.07
2023-01-13T11:17:24.237Z,87.07
2023-01-13T11:18:24.258Z,86.83
2023-01-13T11:19:24.317Z,86.45
2023-01-13T11:20:24.303Z,85.84
2023-01-13T11:21:24.337Z,86.22
2023-01-13T11:22:24.344Z,86.32
2023-01-13T11:23:24.374Z,86.69
2023-01-13T11:24:24.392Z,87.07
2023-01-13T11:25:24.429Z,86.69
2023-01-13T11:26:24.437Z,86.60
2023-01-13T11:27:24.461Z,86.45
2023-01-13T11:28:24.494Z,85.97
2023-01-13T11:29:24.506Z,86.07
2023-01-13T11:30:24.545Z,86.36
2023-01-13T11:31:24.639Z,86.07
2023-01-13T11:32:24.567Z,86.45
2023-01-13T11:33:24.612Z,86.74
2023-01-13T11:34:24.615Z,86.65
2023-01-13T11:35:24.636Z,86.65
2023-01-13T11:36:24.662Z,86.36
2023-01-13T11:37:24.683Z,86.45
2023-01-13T11:38:24.703Z,86.26
2023-01-13T11:39:24.724Z,86.26
2023-01-13T11:40:24.748Z,86.65
2023-01-13T11:41:24.768Z,85.88
2023-01-13T11:42:24.798Z,85.69
2023-01-13T11:43:24.828Z,85.50
2023-01-13T11:44:24.839Z,85.97
2023-01-13T11:45:24.862Z,85.41
2023-01-13T11:46:24.903Z,84.64
2023-01-13T11:47:24.920Z,85.41
2023-01-13T11:48:24.928Z,85.12
2023-01-13T11:49:24.954Z,85.60
2023-01-13T11:50:24.972Z,85.50
2023-01-13T11:51:24.993Z,85.60
2023-01-13T11:52:25.029Z,85.78
2023-01-13T11:53:25.044Z,86.65
2023-01-13T11:54:25.063Z,86.36
2023-01-13T11:55:25.086Z,86.65
2023-01-13T11:56:25.112Z,86.60
2023-01-13T11:57:25.132Z,86.69
2023-01-13T11:58:25.167Z,87.36
2023-01-13T11:59:25.178Z,87.93
2023-01-13T12:00:25.199Z,88.60
2023-01-13T12:01:25.254Z,88.79
2023-01-13T12:02:25.310Z,89.55
2023-01-13T12:03:25.384Z,90.31
2023-01-13T12:04:25.318Z,89.75
2023-01-13T12:05:25.310Z,90.41
2023-01-13T12:06:25.336Z,90.41
2023-01-13T12:07:25.353Z,90.31
2023-01-13T12:08:25.380Z,91.46
2023-01-13T12:09:25.403Z,90.98
2023-01-13T12:10:25.435Z,92.22
2023-01-13T12:11:25.450Z,92.60
2023-01-13T12:12:25.468Z,93.37
2023-01-13T12:13:25.483Z,92.55
2023-01-13T12:14:25.519Z,92.84
2023-01-13T12:15:25.541Z,92.89
2023-01-13T12:16:25.746Z,93.93
2023-01-13T12:17:25.580Z,93.89
2023-01-13T12:18:25.600Z,93.41
2023-01-13T12:19:25.626Z,93.03
2023-01-13T12:20:25.642Z,93.03
2023-01-13T12:21:25.668Z,92.65
2023-01-13T12:22:25.698Z,92.55
2023-01-13T12:23:25.707Z,92.84
2023-01-13T12:24:25.739Z,92.18
2023-01-13T12:25:25.756Z,92.55
2023-01-13T12:26:25.775Z,92.55
2023-01-13T12:27:25.801Z,93.03
2023-01-13T12:28:25.858Z,93.37
2023-01-13T12:29:25.838Z,93.32
2023-01-13T12:30:25.865Z,92.79
2023-01-13T12:31:25.935Z,93.08
2023-01-13T12:32:25.911Z,92.84
2023-01-13T12:33:25.931Z,93.98
2023-01-13T12:34:25.951Z,93.89
2023-01-13T12:35:26.011Z,94.74
2023-01-13T12:36:25.993Z,94.84
2023-01-13T12:37:26.013Z,95.70
2023-01-13T12:38:26.051Z,96.08
2023-01-13T12:39:26.059Z,96.08
2023-01-13T12:40:26.080Z,96.27
2023-01-13T12:41:26.104Z,96.36
2023-01-13T12:42:26.124Z,97.03
2023-01-13T12:43:26.172Z,96.27
2023-01-13T12:44:26.174Z,96.55
2023-01-13T12:45:26.204Z,96.65
2023-01-13T12:46:26.227Z,95.89
2023-01-13T12:47:26.232Z,96.46
2023-01-13T12:48:26.255Z,96.36
2023-01-13T12:49:26.275Z,95.98
2023-01-13T12:50:26.295Z,95.89
2023-01-13T12:51:26.320Z,95.98
2023-01-13T12:52:26.344Z,95.51
2023-01-13T12:53:26.367Z,95.41
2023-01-13T12:54:26.385Z,94.93
2023-01-13T12:55:26.404Z,95.32
2023-01-13T12:56:26.429Z,94.93
2023-01-13T12:57:26.454Z,95.60
2023-01-13T12:58:26.473Z,94.93
2023-01-13T12:59:26.499Z,95.65
2023-01-13T13:00:26.518Z,94.84
2023-01-13T13:01:26.644Z,94.84
2023-01-13T13:02:26.586Z,94.56
2023-01-13T13:03:26.575Z,94.93
2023-01-13T13:04:26.606Z,95.22
2023-01-13T13:05:26.621Z,95.12
2023-01-13T13:06:26.649Z,95.08
2023-01-13T13:07:26.686Z,94.98
2023-01-13T13:08:26.706Z,93.84
2023-01-13T13:09:26.725Z,93.84
2023-01-13T13:10:26.735Z,92.60
2023-01-13T13:11:26.767Z,92.46
2023-01-13T13:12:26.779Z,92.03
2023-01-13T13:13:26.803Z,91.60
2023-01-13T13:14:26.835Z,92.60
2023-01-13T13:15:26.842Z,92.32
2023-01-13T13:16:26.960Z,92.32
2023-01-13T13:17:26.904Z,91.74
2023-01-13T13:18:26.918Z,91.94
2023-01-13T13:19:26.939Z,91.70
2023-01-13T13:20:26.958Z,91.89
2023-01-13T13:21:26.997Z,91.89
2023-01-13T13:22:26.999Z,92.18
2023-01-13T13:23:27.020Z,93.03
2023-01-13T13:24:27.041Z,92.94
2023-01-13T13:25:27.066Z,93.22
2023-01-13T13:26:27.092Z,92.55
2023-01-13T13:27:27.109Z,92.65
2023-01-13T13:28:27.133Z,92.55
2023-01-13T13:29:27.151Z,92.55
2023-01-13T13:30:27.179Z,93.13
2023-01-13T13:31:27.197Z,93.89
2023-01-13T13:32:27.223Z,93.79
2023-01-13T13:33:27.240Z,93.70
2023-01-13T13:34:27.284Z,94.08
2023-01-13T13:35:27.290Z,93.89
2023-01-13T13:36:27.312Z,93.89
2023-01-13T13:37:27.323Z,94.08
2023-01-13T13:38:27.349Z,94.56
2023-01-13T13:39:27.393Z,94.74
2023-01-13T13:40:27.415Z,94.74
2023-01-13T13:41:27.437Z,94.08
2023-01-13T13:42:27.445Z,93.98
2023-01-13T13:43:27.457Z,93.79
2023-01-13T13:44:27.483Z,93.79
2023-01-13T13:45:27.536Z,94.37
2023-01-13T13:46:27.568Z,94.56
2023-01-13T13:47:27.546Z,95.12
2023-01-13T13:48:27.570Z,96.27
2023-01-13T13:49:27.594Z,96.27
2023-01-13T13:50:27.615Z,96.65
2023-01-13T13:51:27.666Z,96.46
2023-01-13T13:52:27.679Z,96.75
2023-01-13T13:53:27.678Z,97.31
2023-01-13T13:54:27.721Z,97.89
2023-01-13T13:55:27.746Z,98.18
2023-01-13T13:56:27.783Z,98.18
2023-01-13T13:57:27.768Z,98.18
2023-01-13T13:58:27.787Z,98.03
2023-01-13T13:59:27.809Z,98.50
2023-01-13T14:00:27.830Z,98.32
2023-01-13T14:01:27.957Z,98.88
2023-01-13T14:02:27.873Z,98.98